Time;durP1;ratioP1;P1;durP2;ratioP2;P2;SDS_P1;SDS_P2;PMS_P1;PMS_P2;Temp;Humidity;BMP_temperature;BMP_pressure;BME280_temperature;BME280_humidity;BME280_pressure;Samples;Min_cycle;Max_cycle;Signal;HPM_P1;HPM_P2
2023/05/20 00:00:10;;;;;;;5.68;2.92;;;12.20;99.90;;;;;;4988315;28;20046;-34
2023/05/20 00:02:36;;;;;;;6.40;2.20;;;12.10;99.90;;;;;;4989410;28;20491;-35
2023/05/20 00:05:02;;;;;;;5.47;2.08;;;12.10;99.90;;;;;;4987889;28;20100;-35
2023/05/20 00:07:27;;;;;;;7.57;2.03;;;12.10;99.90;;;;;;4989544;28;20569;-34
2023/05/20 00:09:53;;;;;;;5.20;2.03;;;12.00;99.90;;;;;;4997091;28;20058;-35
2023/05/20 00:12:19;;;;;;;7.10;2.30;;;12.00;99.90;;;;;;4996244;28;20380;-34
2023/05/20 00:14:44;;;;;;;3.10;1.75;;;12.00;99.90;;;;;;4991556;28;20180;-35
2023/05/20 00:17:10;;;;;;;7.70;2.30;;;12.00;99.90;;;;;;4986821;28;20109;-35
2023/05/20 00:19:35;;;;;;;5.78;2.22;;;12.00;99.90;;;;;;4984791;28;20054;-34
2023/05/20 00:22:01;;;;;;;11.07;3.25;;;11.90;99.90;;;;;;4987686;28;20053;-35
2023/05/20 00:24:27;;;;;;;10.45;1.85;;;11.90;99.90;;;;;;5002481;28;20077;-35
2023/05/20 00:26:53;;;;;;;6.32;2.55;;;11.90;99.90;;;;;;5005219;28;20050;-35
2023/05/20 00:29:20;;;;;;;8.38;2.20;;;11.80;99.90;;;;;;5002317;28;20054;-35
2023/05/20 00:31:46;;;;;;;6.03;1.88;;;11.80;99.90;;;;;;5005007;28;20136;-34
2023/05/20 00:34:12;;;;;;;7.00;2.17;;;11.80;99.90;;;;;;5002055;28;20195;-34
2023/05/20 00:36:38;;;;;;;6.35;2.05;;;11.70;99.90;;;;;;5004019;28;20061;-35
2023/05/20 00:39:03;;;;;;;6.35;2.10;;;11.70;99.90;;;;;;5003290;28;20049;-35
2023/05/20 00:41:29;;;;;;;7.45;2.58;;;11.70;99.90;;;;;;5005283;28;20057;-34
2023/05/20 00:43:55;;;;;;;8.30;2.50;;;11.70;99.90;;;;;;5003200;28;20053;-34
2023/05/20 00:46:26;;;;;;;11.55;3.03;;;11.70;99.90;;;;;;5005473;28;20044;-34
2023/05/20 00:48:52;;;;;;;5.75;2.30;;;11.70;99.90;;;;;;5001944;28;20492;-34
2023/05/20 00:51:18;;;;;;;7.20;2.20;;;11.60;99.90;;;;;;5005242;28;20057;-34
2023/05/20 00:53:44;;;;;;;7.53;2.42;;;11.60;99.90;;;;;;5001664;28;20057;-34
2023/05/20 00:56:11;;;;;;;5.00;2.17;;;11.60;99.90;;;;;;5010408;28;20411;-34
2023/05/20 00:58:37;;;;;;;6.22;2.25;;;11.60;99.90;;;;;;5007108;28;20131;-34
2023/05/20 01:01:03;;;;;;;12.52;2.65;;;11.60;99.90;;;;;;5006629;28;20046;-34
2023/05/20 01:03:29;;;;;;;6.03;2.15;;;11.60;99.90;;;;;;5009033;28;20046;-34
2023/05/20 01:05:54;;;;;;;6.45;2.45;;;11.60;99.90;;;;;;5009030;28;20073;-34
2023/05/20 01:08:22;;;;;;;10.00;2.13;;;11.50;99.90;;;;;;5005667;28;20050;-34
2023/05/20 01:10:55;;;;;;;7.18;2.58;;;11.50;99.90;;;;;;5006844;28;20176;-34
2023/05/20 01:13:26;;;;;;;6.38;2.38;;;11.50;99.90;;;;;;5008332;28;20506;-34
2023/05/20 01:15:55;;;;;;;4.07;2.00;;;11.50;99.90;;;;;;5006339;28;20583;-34
2023/05/20 01:18:24;;;;;;;7.95;2.30;;;11.50;99.90;;;;;;5006329;28;20054;-35
2023/05/20 01:20:54;;;;;;;7.03;2.47;;;11.40;99.90;;;;;;5009008;28;20054;-35
2023/05/20 01:23:20;;;;;;;6.50;2.80;;;11.40;99.90;;;;;;5004794;28;20056;-35
2023/05/20 01:25:46;;;;;;;8.02;2.80;;;11.40;99.90;;;;;;5009871;28;20055;-34
2023/05/20 01:28:16;;;;;;;6.25;2.53;;;11.40;99.90;;;;;;5004613;28;20170;-35
2023/05/20 01:30:48;;;;;;;4.95;2.55;;;11.40;99.90;;;;;;5008861;28;20046;-34
2023/05/20 01:33:15;;;;;;;10.70;2.65;;;11.40;99.90;;;;;;5008430;28;20066;-34
2023/05/20 01:35:41;;;;;;;6.60;2.20;;;11.40;99.90;;;;;;5004090;28;20072;-34
2023/05/20 01:38:07;;;;;;;6.70;2.47;;;11.40;99.90;;;;;;5006740;28;20046;-34
2023/05/20 01:40:34;;;;;;;7.28;2.72;;;11.30;99.90;;;;;;5009481;28;20046;-34
2023/05/20 01:43:02;;;;;;;5.70;2.33;;;11.30;99.90;;;;;;5007374;28;20121;-33
2023/05/20 01:45:27;;;;;;;7.90;2.45;;;11.30;99.90;;;;;;5008222;28;20042;-36
2023/05/20 01:47:53;;;;;;;6.03;2.17;;;11.30;99.90;;;;;;5008540;28;20485;-34
2023/05/20 01:50:19;;;;;;;7.15;2.45;;;11.30;99.90;;;;;;5014708;28;20081;-34
2023/05/20 01:52:44;;;;;;;5.68;2.10;;;11.30;99.90;;;;;;5010529;28;20107;-34
2023/05/20 01:55:10;;;;;;;7.80;2.33;;;11.30;99.90;;;;;;5007917;28;20526;-36
2023/05/20 01:57:36;;;;;;;8.40;2.47;;;11.30;99.90;;;;;;5008490;28;20058;-34
2023/05/20 02:00:01;;;;;;;5.80;2.20;;;11.30;99.90;;;;;;4997167;28;20426;-34
2023/05/20 02:02:27;;;;;;;3.60;2.22;;;11.30;99.90;;;;;;5007415;28;20410;-34
2023/05/20 02:04:53;;;;;;;7.22;2.58;;;11.30;99.90;;;;;;5008995;28;20046;-34
2023/05/20 02:07:19;;;;;;;5.85;2.50;;;11.30;99.90;;;;;;4982137;28;20140;-33
2023/05/20 02:09:45;;;;;;;5.22;2.20;;;11.30;99.90;;;;;;5004014;28;20057;-34
2023/05/20 02:12:15;;;;;;;5.55;2.10;;;11.30;99.90;;;;;;5003025;28;20061;-34
2023/05/20 02:14:42;;;;;;;6.50;2.28;;;11.30;99.90;;;;;;5006297;28;20773;-34
2023/05/20 02:17:08;;;;;;;4.68;1.80;;;11.30;99.90;;;;;;5001515;28;20045;-34
2023/05/20 02:19:33;;;;;;;5.47;2.40;;;11.30;99.90;;;;;;5007425;28;20491;-34
2023/05/20 02:21:59;;;;;;;6.45;2.30;;;11.30;99.90;;;;;;5008833;28;20080;-34
2023/05/20 02:24:24;;;;;;;5.18;2.45;;;11.30;99.90;;;;;;5014079;28;20061;-35
2023/05/20 02:26:52;;;;;;;3.95;1.90;;;11.30;99.90;;;;;;5004909;28;20210;-34
2023/05/20 02:29:20;;;;;;;6.35;2.33;;;11.30;99.90;;;;;;5006053;28;20053;-34
2023/05/20 02:31:46;;;;;;;7.80;2.65;;;11.30;99.90;;;;;;5009275;28;20498;-34
2023/05/20 02:34:12;;;;;;;4.25;2.03;;;11.30;99.90;;;;;;5004494;28;20446;-34
2023/05/20 02:36:38;;;;;;;8.25;2.10;;;11.30;99.90;;;;;;5005301;28;20041;-35
2023/05/20 02:39:03;;;;;;;5.68;1.85;;;11.30;99.90;;;;;;5002296;28;20092;-34
2023/05/20 02:41:29;;;;;;;6.05;2.17;;;11.40;99.90;;;;;;5007247;28;20148;-34
2023/05/20 02:43:54;;;;;;;5.07;2.50;;;11.30;99.90;;;;;;5007190;28;20045;-35
2023/05/20 02:46:20;;;;;;;6.70;2.35;;;11.30;99.90;;;;;;5008667;28;20045;-34
2023/05/20 02:48:46;;;;;;;6.75;2.10;;;11.30;99.90;;;;;;5005716;28;20458;-35
2023/05/20 02:51:11;;;;;;;5.25;1.92;;;11.30;99.90;;;;;;5008367;28;20070;-34
2023/05/20 02:53:37;;;;;;;9.13;2.78;;;11.30;99.90;;;;;;5007573;28;20107;-35
2023/05/20 02:56:03;;;;;;;7.53;2.58;;;11.30;99.90;;;;;;5008949;28;20042;-35
2023/05/20 02:58:29;;;;;;;5.95;2.10;;;11.30;99.90;;;;;;5005831;28;20530;-35
2023/05/20 03:00:56;;;;;;;7.18;2.50;;;11.30;99.90;;;;;;4991238;28;20042;-34
2023/05/20 03:03:24;;;;;;;7.43;2.65;;;11.20;99.90;;;;;;5007732;28;20046;-35
2023/05/20 03:05:50;;;;;;;5.22;1.90;;;11.20;99.90;;;;;;5007280;28;20037;-34
2023/05/20 03:08:19;;;;;;;5.18;2.25;;;11.20;99.90;;;;;;5005649;28;20510;-34
2023/05/20 03:10:45;;;;;;;10.57;2.30;;;11.20;99.90;;;;;;5006007;28;20053;-36
2023/05/20 03:13:10;;;;;;;5.75;1.90;;;11.20;99.90;;;;;;5003310;28;20038;-33
2023/05/20 03:15:40;;;;;;;8.52;2.50;;;11.20;99.90;;;;;;5006866;28;20093;-34
2023/05/20 03:18:07;;;;;;;5.78;2.05;;;11.20;99.90;;;;;;5005810;28;20046;-34
2023/05/20 03:20:35;;;;;;;6.07;2.30;;;11.20;99.90;;;;;;5006221;28;20104;-34
2023/05/20 03:23:01;;;;;;;6.13;1.83;;;11.10;99.90;;;;;;5006620;28;20498;-34
2023/05/20 03:25:27;;;;;;;8.00;1.83;;;11.10;99.90;;;;;;5006244;28;20076;-34
2023/05/20 03:27:53;;;;;;;4.20;1.65;;;11.10;99.90;;;;;;5010080;28;20491;-34
2023/05/20 03:30:20;;;;;;;5.32;2.10;;;11.10;99.90;;;;;;5008442;28;20062;-33
2023/05/20 03:32:46;;;;;;;5.85;2.10;;;11.10;99.90;;;;;;5006447;28;20053;-34
2023/05/20 03:35:12;;;;;;;6.53;2.72;;;11.10;99.90;;;;;;5006392;28;20132;-34
2023/05/20 03:37:38;;;;;;;6.75;2.03;;;11.10;99.90;;;;;;5007665;28;20077;-34
2023/05/20 03:40:05;;;;;;;7.47;2.00;;;11.20;99.90;;;;;;4989793;28;20079;-34
2023/05/20 03:42:34;;;;;;;3.55;1.92;;;11.20;99.90;;;;;;5011050;28;20501;-35
2023/05/20 03:45:00;;;;;;;5.88;2.38;;;11.20;99.90;;;;;;5004706;28;20088;-35
2023/05/20 03:47:26;;;;;;;7.40;2.03;;;11.20;99.90;;;;;;5005838;28;20491;-34
2023/05/20 03:49:52;;;;;;;5.43;2.45;;;11.20;99.90;;;;;;5003156;28;20382;-34
2023/05/20 03:52:18;;;;;;;6.68;1.88;;;11.20;99.90;;;;;;5006062;28;20060;-35
2023/05/20 03:54:43;;;;;;;6.45;2.20;;;11.20;99.90;;;;;;5003347;28;20132;-34
2023/05/20 03:57:09;;;;;;;4.68;1.45;;;11.20;99.90;;;;;;5006091;28;20045;-35
2023/05/20 03:59:35;;;;;;;4.32;1.70;;;11.20;99.90;;;;;;5007115;28;20049;-34
2023/05/20 04:02:02;;;;;;;8.48;2.30;;;11.20;99.90;;;;;;5004595;28;20041;-34
2023/05/20 04:04:28;;;;;;;3.67;2.00;;;11.20;99.90;;;;;;4995945;28;20046;-34
2023/05/20 04:06:55;;;;;;;5.75;2.17;;;11.20;99.90;;;;;;5005896;28;20045;-34
2023/05/20 04:09:21;;;;;;;7.97;2.15;;;11.30;99.90;;;;;;5005512;28;20125;-35
2023/05/20 04:11:47;;;;;;;5.70;1.90;;;11.30;99.90;;;;;;5004444;28;20052;-34
2023/05/20 04:14:14;;;;;;;5.25;1.80;;;11.30;99.90;;;;;;5005833;28;20643;-35
2023/05/20 04:16:40;;;;;;;4.03;1.67;;;11.30;99.90;;;;;;5002714;28;20060;-34
2023/05/20 04:19:06;;;;;;;4.78;2.05;;;11.30;99.90;;;;;;5004463;28;20418;-34
2023/05/20 04:21:32;;;;;;;5.15;1.77;;;11.40;99.90;;;;;;5004651;28;20111;-34
2023/05/20 04:23:57;;;;;;;3.15;1.60;;;11.40;99.90;;;;;;4988265;28;20073;-34
2023/05/20 04:26:23;;;;;;;6.32;1.92;;;11.50;99.90;;;;;;5001325;28;20128;-34
2023/05/20 04:28:49;;;;;;;4.95;1.75;;;11.50;99.90;;;;;;5006592;28;20104;-33
2023/05/20 04:31:15;;;;;;;5.00;2.00;;;11.50;99.90;;;;;;5008384;28;20074;-34
2023/05/20 04:33:41;;;;;;;3.75;1.38;;;11.50;99.90;;;;;;5009697;28;20057;-34
2023/05/20 04:36:10;;;;;;;5.03;2.10;;;11.50;99.90;;;;;;5005969;28;20050;-34
2023/05/20 04:38:37;;;;;;;5.05;2.05;;;11.50;99.90;;;;;;5005272;28;20060;-34
2023/05/20 04:41:03;;;;;;;9.00;1.70;;;11.50;99.90;;;;;;5009052;28;20057;-34
2023/05/20 04:43:29;;;;;;;4.50;1.60;;;11.50;99.90;;;;;;5009646;28;20057;-34
2023/05/20 04:45:55;;;;;;;4.57;1.63;;;11.40;99.90;;;;;;5006516;28;20506;-34
2023/05/20 04:48:21;;;;;;;3.42;1.40;;;11.40;99.90;;;;;;5006401;28;20565;-34
2023/05/20 04:50:48;;;;;;;4.57;1.80;;;11.50;99.90;;;;;;5011676;28;20079;-34
2023/05/20 04:53:15;;;;;;;4.03;2.22;;;11.50;99.90;;;;;;5008178;28;20494;-34
2023/05/20 04:55:42;;;;;;;3.75;1.30;;;11.60;99.90;;;;;;5008034;28;20073;-34
2023/05/20 04:58:13;;;;;;;4.15;1.88;;;11.60;99.90;;;;;;5010371;28;20050;-34
2023/05/20 05:00:41;;;;;;;3.60;1.40;;;11.70;99.90;;;;;;4990573;28;20065;-34
2023/05/20 05:03:07;;;;;;;4.18;1.30;;;11.70;99.90;;;;;;5011004;28;20048;-34
2023/05/20 05:05:35;;;;;;;3.08;1.40;;;11.80;99.90;;;;;;5008586;28;20052;-34
2023/05/20 05:08:02;;;;;;;3.72;1.25;;;11.70;99.90;;;;;;5008850;28;20066;-34
2023/05/20 05:10:28;;;;;;;5.32;1.58;;;11.80;99.90;;;;;;5006411;28;20097;-34
2023/05/20 05:12:54;;;;;;;8.20;2.47;;;11.80;99.90;;;;;;5009778;28;20080;-34
2023/05/20 05:15:20;;;;;;;4.40;1.40;;;11.70;99.90;;;;;;5009447;28;20064;-34
2023/05/20 05:17:45;;;;;;;4.20;1.60;;;11.70;99.90;;;;;;5006148;28;20108;-34
2023/05/20 05:20:11;;;;;;;3.25;1.52;;;11.70;99.90;;;;;;5007546;28;20046;-34
2023/05/20 05:22:38;;;;;;;5.60;1.10;;;11.80;99.90;;;;;;5009659;28;20057;-34
2023/05/20 05:25:05;;;;;;;3.60;1.45;;;11.80;99.90;;;;;;5010543;28;20054;-34
2023/05/20 05:27:31;;;;;;;5.63;1.27;;;11.80;99.90;;;;;;5008281;28;20132;-34
2023/05/20 05:29:57;;;;;;;3.75;1.63;;;11.90;99.90;;;;;;5008557;28;20137;-35
2023/05/20 05:32:22;;;;;;;5.13;1.30;;;11.90;99.90;;;;;;5008646;28;20489;-35
2023/05/20 05:34:48;;;;;;;3.65;1.30;;;12.00;99.90;;;;;;5008852;28;20136;-34
2023/05/20 05:37:13;;;;;;;5.00;1.60;;;12.00;99.90;;;;;;5010555;28;20054;-34
2023/05/20 05:39:39;;;;;;;3.60;1.33;;;12.10;99.90;;;;;;5001605;28;20084;-34
2023/05/20 05:42:05;;;;;;;2.55;1.13;;;12.20;99.90;;;;;;5008534;28;20061;-34
2023/05/20 05:44:31;;;;;;;2.70;1.30;;;12.20;99.90;;;;;;5008612;28;20147;-34
2023/05/20 05:46:56;;;;;;;4.60;1.35;;;12.30;99.90;;;;;;5010644;28;20062;-34
2023/05/20 05:49:22;;;;;;;2.83;1.30;;;12.40;99.90;;;;;;5005918;28;20150;-34
2023/05/20 05:51:50;;;;;;;2.78;1.10;;;12.50;99.90;;;;;;5008924;28;20082;-35
2023/05/20 05:54:16;;;;;;;2.95;0.90;;;12.60;99.90;;;;;;5006633;28;20462;-33
2023/05/20 05:56:41;;;;;;;3.70;1.60;;;12.70;99.90;;;;;;5004104;28;20714;-34
2023/05/20 05:59:07;;;;;;;3.47;0.90;;;12.70;99.90;;;;;;5008552;28;20088;-34
2023/05/20 06:01:33;;;;;;;4.10;1.20;;;12.80;99.90;;;;;;5006356;28;20053;-34
2023/05/20 06:03:59;;;;;;;3.33;1.15;;;12.90;99.90;;;;;;5009300;28;20054;-34
2023/05/20 06:06:25;;;;;;;2.97;1.00;;;13.00;99.90;;;;;;5008161;28;20506;-34
2023/05/20 06:08:51;;;;;;;3.03;1.00;;;13.00;99.90;;;;;;5007767;28;20057;-34
2023/05/20 06:11:16;;;;;;;3.55;0.90;;;13.20;99.90;;;;;;5009014;28;20054;-34
2023/05/20 06:13:42;;;;;;;3.15;1.05;;;13.20;99.90;;;;;;5004714;28;20136;-34
2023/05/20 06:16:08;;;;;;;2.28;1.08;;;13.30;99.90;;;;;;5010127;28;20632;-34
2023/05/20 06:18:33;;;;;;;1.30;0.70;;;13.40;99.90;;;;;;5004677;28;20061;-34
2023/05/20 06:20:59;;;;;;;2.17;0.93;;;13.50;99.90;;;;;;5008861;28;20058;-34
2023/05/20 06:23:25;;;;;;;5.13;1.55;;;13.60;99.90;;;;;;5005732;28;20062;-34
2023/05/20 06:25:51;;;;;;;1.60;0.60;;;13.70;99.90;;;;;;5004698;28;20148;-34
2023/05/20 06:28:17;;;;;;;2.75;0.98;;;13.80;99.90;;;;;;5004857;28;20045;-34
2023/05/20 06:30:43;;;;;;;2.30;0.77;;;13.80;99.90;;;;;;4996717;28;20068;-34
2023/05/20 06:33:09;;;;;;;4.05;0.70;;;13.90;99.90;;;;;;5003451;28;20080;-34
2023/05/20 06:35:34;;;;;;;2.88;0.80;;;14.00;99.90;;;;;;5007164;28;20062;-34
2023/05/20 06:38:00;;;;;;;2.20;0.90;;;14.10;99.90;;;;;;5005757;28;20466;-34
2023/05/20 06:40:27;;;;;;;2.83;0.80;;;14.20;99.90;;;;;;5004909;28;20057;-34
2023/05/20 06:42:52;;;;;;;2.08;0.75;;;14.30;99.90;;;;;;5005140;28;20132;-34
2023/05/20 06:45:18;;;;;;;2.33;0.75;;;14.30;99.90;;;;;;5007710;28;20587;-34
2023/05/20 06:47:44;;;;;;;3.42;1.15;;;14.40;99.90;;;;;;5005991;28;20068;-34
2023/05/20 06:50:10;;;;;;;3.35;0.95;;;14.50;99.90;;;;;;5007510;28;20060;-34
2023/05/20 06:52:36;;;;;;;3.50;1.17;;;14.60;99.90;;;;;;5004406;28;20414;-34
2023/05/20 06:55:03;;;;;;;2.00;0.82;;;14.70;99.90;;;;;;5006665;28;20054;-34
2023/05/20 06:57:29;;;;;;;4.55;1.10;;;14.80;99.90;;;;;;5006897;28;20061;-34
2023/05/20 06:59:55;;;;;;;3.50;1.10;;;14.80;99.90;;;;;;5006265;28;30480;-34
2023/05/20 07:02:21;;;;;;;2.15;0.85;;;14.90;99.90;;;;;;5011599;28;20064;-34
2023/05/20 07:04:47;;;;;;;3.83;1.27;;;15.00;99.90;;;;;;5005327;28;20045;-34
2023/05/20 07:07:13;;;;;;;2.40;1.20;;;15.00;99.90;;;;;;4986268;28;20085;-34
2023/05/20 07:09:39;;;;;;;2.25;1.02;;;15.10;99.90;;;;;;4986268;28;20074;-34
2023/05/20 07:12:05;;;;;;;1.65;0.55;;;15.20;99.90;;;;;;5003605;28;20050;-34
2023/05/20 07:14:31;;;;;;;5.63;0.85;;;15.20;99.90;;;;;;5009272;28;20056;-34
2023/05/20 07:16:56;;;;;;;2.20;0.90;;;15.30;99.90;;;;;;4990122;28;20054;-34
2023/05/20 07:19:22;;;;;;;3.38;0.73;;;15.40;99.90;;;;;;5006296;28;20085;-34
2023/05/20 07:21:48;;;;;;;1.33;0.70;;;15.50;99.90;;;;;;5006276;28;20049;-34
2023/05/20 07:24:17;;;;;;;3.45;0.90;;;15.60;99.90;;;;;;4999606;28;20054;-34
2023/05/20 07:26:43;;;;;;;3.72;0.90;;;15.70;99.90;;;;;;4998802;28;20050;-34
2023/05/20 07:29:09;;;;;;;3.25;0.70;;;15.70;99.90;;;;;;4982462;28;20515;-34
2023/05/20 07:31:35;;;;;;;2.72;0.75;;;15.80;99.90;;;;;;5005915;28;20041;-34
2023/05/20 07:34:01;;;;;;;2.25;0.93;;;15.90;99.90;;;;;;5004141;28;20053;-34
2023/05/20 07:36:27;;;;;;;1.70;0.73;;;16.00;99.90;;;;;;5001701;28;20771;-34
2023/05/20 07:38:53;;;;;;;2.53;1.02;;;16.00;99.90;;;;;;5001745;28;20046;-34
2023/05/20 07:41:19;;;;;;;3.42;0.90;;;16.20;99.90;;;;;;4986058;28;20051;-34
2023/05/20 07:43:45;;;;;;;3.25;0.98;;;16.20;99.90;;;;;;4993641;28;20103;-34
2023/05/20 07:46:10;;;;;;;1.67;0.80;;;16.30;99.90;;;;;;5003326;28;20066;-34
2023/05/20 07:48:36;;;;;;;2.33;0.90;;;16.40;99.90;;;;;;4995267;28;20069;-35
2023/05/20 07:51:01;;;;;;;4.82;1.10;;;16.40;99.90;;;;;;4999312;28;20399;-34
2023/05/20 07:53:27;;;;;;;2.28;0.80;;;16.40;99.90;;;;;;5003025;28;20376;-35
2023/05/20 07:55:53;;;;;;;4.40;0.82;;;16.50;99.90;;;;;;5005549;28;20053;-34
2023/05/20 07:58:19;;;;;;;1.88;0.93;;;16.50;99.90;;;;;;5007560;28;20049;-35
2023/05/20 08:00:44;;;;;;;4.35;1.00;;;16.60;99.90;;;;;;5003084;28;20054;-34
2023/05/20 08:03:10;;;;;;;2.53;1.02;;;16.70;99.90;;;;;;4984534;28;20539;-35
2023/05/20 08:05:37;;;;;;;2.67;1.10;;;16.80;99.90;;;;;;4996239;28;20536;-35
2023/05/20 08:08:03;;;;;;;2.10;0.90;;;16.90;99.90;;;;;;5004337;28;20049;-35
2023/05/20 08:10:29;;;;;;;2.15;0.75;;;16.90;99.90;;;;;;5008541;28;20503;-34
2023/05/20 08:12:54;;;;;;;3.60;0.95;;;17.00;99.90;;;;;;5010226;28;20116;-34
2023/05/20 08:15:20;;;;;;;5.75;1.10;;;17.10;99.90;;;;;;5003445;28;20131;-35
2023/05/20 08:17:46;;;;;;;3.10;1.00;;;17.20;99.90;;;;;;5006960;28;20085;-34
2023/05/20 08:20:12;;;;;;;3.50;1.02;;;17.30;99.90;;;;;;5006605;28;20061;-35
2023/05/20 08:22:38;;;;;;;2.03;0.75;;;17.30;99.90;;;;;;4975342;28;20058;-35
2023/05/20 08:25:07;;;;;;;1.50;0.80;;;17.40;99.90;;;;;;5006238;28;20053;-35
2023/05/20 08:27:33;;;;;;;2.10;0.68;;;17.40;99.90;;;;;;5016316;28;20499;-35
2023/05/20 08:29:59;;;;;;;2.55;0.90;;;17.50;99.90;;;;;;5009403;28;20104;-35
2023/05/20 08:32:25;;;;;;;3.30;1.20;;;17.60;99.90;;;;;;5009164;28;20054;-35
2023/05/20 08:34:50;;;;;;;2.03;0.77;;;17.50;99.90;;;;;;5008038;28;20058;-35
2023/05/20 08:37:16;;;;;;;2.80;0.80;;;17.50;99.90;;;;;;5006644;28;20054;-34
2023/05/20 08:39:43;;;;;;;1.80;0.93;;;17.60;99.90;;;;;;5008102;28;20049;-35
2023/05/20 08:42:12;;;;;;;2.60;0.88;;;17.70;99.90;;;;;;5007726;28;20123;-35
2023/05/20 08:44:39;;;;;;;2.15;0.82;;;17.80;99.90;;;;;;5006733;28;20042;-35
2023/05/20 08:47:06;;;;;;;2.20;0.90;;;18.00;99.90;;;;;;5009787;28;20058;-35
2023/05/20 08:49:32;;;;;;;2.50;0.73;;;18.10;99.90;;;;;;5008334;28;20178;-35
2023/05/20 08:51:59;;;;;;;2.00;0.90;;;18.20;99.90;;;;;;4998306;28;20045;-35
2023/05/20 08:54:32;;;;;;;2.05;0.85;;;18.30;99.90;;;;;;5003525;28;20084;-35
2023/05/20 08:56:59;;;;;;;1.52;0.60;;;18.40;99.90;;;;;;4998599;28;20097;-35
2023/05/20 08:59:26;;;;;;;1.83;0.80;;;18.50;99.90;;;;;;5001413;28;20510;-35
2023/05/20 09:01:51;;;;;;;2.97;0.77;;;18.60;99.90;;;;;;5009337;28;20470;-35
2023/05/20 09:04:17;;;;;;;2.92;1.00;;;18.70;99.90;;;;;;5004745;28;20058;-35
2023/05/20 09:06:46;;;;;;;2.15;0.90;;;18.80;99.90;;;;;;5002217;28;20088;-35
2023/05/20 09:09:12;;;;;;;2.67;0.75;;;18.90;99.90;;;;;;4998898;28;20066;-35
2023/05/20 09:11:40;;;;;;;2.38;0.82;;;18.90;99.90;;;;;;5009333;28;20058;-35
2023/05/20 09:14:06;;;;;;;7.28;1.10;;;19.00;99.90;;;;;;5007999;28;20052;-35
2023/05/20 09:16:32;;;;;;;2.42;0.90;;;19.00;99.90;;;;;;5016105;28;20061;-35
2023/05/20 09:18:58;;;;;;;3.70;0.90;;;19.10;99.90;;;;;;5010423;28;20108;-35
2023/05/20 09:21:29;;;;;;;4.25;1.20;;;19.20;99.90;;;;;;5009530;28;20137;-35
2023/05/20 09:23:58;;;;;;;3.08;0.85;;;19.20;99.90;;;;;;5007491;28;20475;-34
2023/05/20 09:26:28;;;;;;;4.20;0.85;;;19.20;99.90;;;;;;5009438;28;20061;-34
2023/05/20 09:28:57;;;;;;;2.13;0.80;;;19.30;99.90;;;;;;5008744;28;20057;-33
2023/05/20 09:31:33;;;;;;;2.33;0.82;;;19.40;99.90;;;;;;5014426;28;20406;-35
2023/05/20 09:34:02;;;;;;;5.72;0.90;;;19.50;99.90;;;;;;4985114;28;20049;-35
2023/05/20 09:36:33;;;;;;;2.42;0.60;;;19.50;99.90;;;;;;5016967;28;20104;-35
2023/05/20 09:39:04;;;;;;;2.17;0.80;;;19.50;99.90;;;;;;5012174;28;20132;-35
2023/05/20 09:41:38;;;;;;;3.30;0.70;;;19.50;99.90;;;;;;5005524;28;20054;-35
2023/05/20 09:44:05;;;;;;;2.55;0.60;;;19.70;99.90;;;;;;5010726;28;20054;-35
2023/05/20 09:46:33;;;;;;;2.40;0.60;;;19.80;99.90;;;;;;5010015;28;20499;-35
2023/05/20 09:49:00;;;;;;;2.50;1.00;;;19.90;99.90;;;;;;5002886;28;20116;-34
2023/05/20 09:51:28;;;;;;;3.08;1.00;;;19.90;99.90;;;;;;5002958;28;20515;-35
2023/05/20 09:53:54;;;;;;;3.75;1.00;;;19.80;99.90;;;;;;5005893;28;20042;-35
2023/05/20 09:56:24;;;;;;;3.60;1.10;;;19.90;99.90;;;;;;5008139;28;20061;-35
2023/05/20 09:58:51;;;;;;;3.75;0.90;;;20.00;99.90;;;;;;5006425;28;20578;-35
2023/05/20 10:01:17;;;;;;;3.22;0.68;;;20.10;99.90;;;;;;5003928;28;20108;-35
2023/05/20 10:03:44;;;;;;;2.45;0.60;;;20.20;99.90;;;;;;4999623;28;20053;-35
2023/05/20 10:06:49;;;;;;;2.78;1.05;;;20.40;99.90;;;;;;5001212;28;20050;-34
2023/05/20 10:09:42;;;;;;;4.63;0.68;;;20.50;99.90;;;;;;4992919;28;20053;-35
2023/05/20 10:12:27;;;;;;;3.97;0.90;;;20.70;99.90;;;;;;5001436;28;20591;-35
2023/05/20 10:15:03;;;;;;;8.90;1.65;;;20.80;99.90;;;;;;5003830;28;20042;-34
2023/05/20 10:17:55;;;;;;;9.02;1.35;;;20.90;99.90;;;;;;5004367;28;20045;-34
2023/05/20 10:20:21;;;;;;;2.25;1.08;;;20.90;99.90;;;;;;5000460;28;20058;-35
2023/05/20 10:22:56;;;;;;;6.30;1.00;;;21.00;99.90;;;;;;5002434;28;20158;-34
2023/05/20 10:25:26;;;;;;;2.97;0.60;;;21.10;99.90;;;;;;5002078;28;20266;-34
2023/05/20 10:28:03;;;;;;;2.65;0.88;;;21.10;99.90;;;;;;5008340;28;20124;-34
2023/05/20 10:30:29;;;;;;;3.05;0.65;;;21.20;99.90;;;;;;5009910;28;20415;-34
2023/05/20 10:32:59;;;;;;;3.47;0.73;;;21.30;99.90;;;;;;5010460;28;20046;-35
2023/05/20 10:35:26;;;;;;;3.22;0.50;;;21.40;99.90;;;;;;5009252;28;20049;-34
2023/05/20 10:38:06;;;;;;;1.80;0.70;;;21.60;99.90;;;;;;5012357;28;20061;-34
2023/05/20 10:40:32;;;;;;;3.95;0.82;;;21.90;99.90;;;;;;5001398;28;20507;-35
2023/05/20 10:43:11;;;;;;;2.50;0.70;;;21.90;99.90;;;;;;5008192;28;20046;-34
2023/05/20 10:45:48;;;;;;;3.08;1.35;;;21.70;99.90;;;;;;5005874;28;20108;-35
2023/05/20 10:48:43;;;;;;;3.33;0.68;;;21.50;99.90;;;;;;5004170;28;20053;-34
2023/05/20 10:51:13;;;;;;;4.88;1.25;;;21.50;99.90;;;;;;4995798;28;20810;-34
2023/05/20 10:53:40;;;;;;;1.73;0.50;;;21.60;99.90;;;;;;5003743;28;20068;-34
2023/05/20 10:56:19;;;;;;;2.22;0.80;;;21.90;99.90;;;;;;5005192;28;20162;-34
2023/05/20 10:58:45;;;;;;;4.07;1.35;;;22.10;99.90;;;;;;4986949;28;20112;-34
2023/05/20 11:01:12;;;;;;;3.88;0.75;;;22.20;99.90;;;;;;5005098;28;20050;-34
2023/05/20 11:03:39;;;;;;;3.13;0.50;;;22.30;99.90;;;;;;5000653;28;20061;-34
2023/05/20 11:06:12;;;;;;;2.42;0.70;;;22.30;99.90;;;;;;5001382;28;20048;-34
2023/05/20 11:08:37;;;;;;;;;;;22.50;99.90;;;;;;4986223;28;20061;-34
2023/05/20 11:11:03;;;;;;;3.47;0.65;;;22.60;99.90;;;;;;4999249;28;20044;-34
2023/05/20 11:13:30;;;;;;;2.97;0.68;;;22.70;99.90;;;;;;4996472;28;20053;-35
2023/05/20 11:15:57;;;;;;;1.50;0.88;;;22.70;99.90;;;;;;4989082;28;20054;-34
2023/05/20 11:18:22;;;;;;;3.13;0.98;;;22.80;99.90;;;;;;4977614;28;20329;-34
2023/05/20 11:20:48;;;;;;;1.52;0.73;;;22.80;99.90;;;;;;5002728;28;20054;-34
2023/05/20 11:23:14;;;;;;;2.97;0.80;;;22.70;99.90;;;;;;5007071;28;20057;-34
2023/05/20 11:25:40;;;;;;;2.15;0.90;;;22.80;99.90;;;;;;5005396;28;20092;-34
2023/05/20 11:28:15;;;;;;;6.63;0.98;;;22.90;99.90;;;;;;5006736;28;20054;-35
2023/05/20 11:30:44;;;;;;;1.92;0.88;;;23.00;99.90;;;;;;4996299;28;20081;-35
2023/05/20 11:33:15;;;;;;;6.25;1.05;;;23.00;99.90;;;;;;5004152;28;20502;-35
2023/05/20 11:35:50;;;;;;;2.90;0.75;;;22.90;99.90;;;;;;4996720;28;20485;-34
2023/05/20 11:38:17;;;;;;;2.03;0.70;;;22.90;99.90;;;;;;4998986;28;20049;-34
2023/05/20 11:41:00;;;;;;;2.20;0.80;;;23.00;99.90;;;;;;5000639;28;20049;-34
2023/05/20 11:43:26;;;;;;;2.30;0.75;;;22.80;99.90;;;;;;5004727;28;20054;-35
2023/05/20 11:45:58;;;;;;;1.92;0.70;;;22.70;99.90;;;;;;5001245;28;20608;-34
2023/05/20 11:48:24;;;;;;;1.70;0.63;;;22.80;99.90;;;;;;4981001;28;20058;-35
2023/05/20 11:50:53;;;;;;;2.47;0.63;;;22.80;99.90;;;;;;4984204;28;20241;-34
2023/05/20 11:53:20;;;;;;;2.65;0.70;;;22.70;99.90;;;;;;4982504;28;20411;-35
2023/05/20 11:55:47;;;;;;;3.97;0.80;;;22.70;99.90;;;;;;4977447;28;20050;-34
2023/05/20 11:58:29;;;;;;;4.10;0.70;;;22.50;99.90;;;;;;4983018;28;20050;-34
2023/05/20 12:00:55;;;;;;;3.50;1.13;;;22.40;99.90;;;;;;4980076;28;20046;-34
2023/05/20 12:03:21;;;;;;;1.17;0.70;;;22.30;99.90;;;;;;4980819;28;20094;-35
2023/05/20 12:05:47;;;;;;;3.15;0.82;;;22.30;99.90;;;;;;4979818;28;20442;-34
2023/05/20 12:08:15;;;;;;;2.55;0.80;;;22.50;99.90;;;;;;4981032;28;20556;-35
2023/05/20 12:10:40;;;;;;;3.38;1.00;;;22.50;99.90;;;;;;4981978;28;20054;-34
2023/05/20 12:13:12;;;;;;;4.70;1.10;;;22.60;99.90;;;;;;4969337;28;20412;-35
2023/05/20 12:15:38;;;;;;;3.10;0.80;;;22.60;99.90;;;;;;4990627;28;20050;-34
2023/05/20 12:18:04;;;;;;;3.33;1.02;;;22.70;99.90;;;;;;4988972;28;20308;-33
2023/05/20 12:20:30;;;;;;;2.83;1.08;;;22.70;99.90;;;;;;4984110;28;20089;-32
2023/05/20 12:22:56;;;;;;;3.00;0.80;;;22.80;99.90;;;;;;4960519;28;20061;-32
2023/05/20 12:25:22;;;;;;;3.55;0.80;;;22.90;99.90;;;;;;4964940;28;20050;-32
2023/05/20 12:27:49;;;;;;;1.90;0.70;;;23.00;99.90;;;;;;4982385;28;20046;-32
2023/05/20 12:30:20;;;;;;;2.90;0.60;;;23.00;99.90;;;;;;4978876;28;20133;-34
2023/05/20 12:32:46;;;;;;;3.78;0.80;;;23.00;99.90;;;;;;4981349;28;20039;-33
2023/05/20 12:35:12;;;;;;;3.75;0.82;;;22.90;99.90;;;;;;4983637;28;20054;-34
2023/05/20 12:37:40;;;;;;;3.70;0.88;;;22.70;99.90;;;;;;4980114;28;20060;-34
2023/05/20 12:40:07;;;;;;;3.83;0.98;;;22.60;99.90;;;;;;4981560;28;20530;-33
2023/05/20 12:42:34;;;;;;;1.52;0.60;;;22.60;99.90;;;;;;4966522;28;20092;-34
2023/05/20 12:45:00;;;;;;;4.38;0.90;;;22.90;99.90;;;;;;4977746;28;20058;-34
2023/05/20 12:47:26;;;;;;;1.80;0.65;;;23.10;99.90;;;;;;4983667;28;20058;-34